Time;durP1;ratioP1;P1;durP2;ratioP2;P2;SDS_P1;SDS_P2;PMS_P1;PMS_P2;Temp;Humidity;BMP_temperature;BMP_pressure;BME280_temperature;BME280_humidity;BME280_pressure;Samples;Min_cycle;Max_cycle;Signal;HPM_P1;HPM_P2
2022/01/19 00:00:12;;;;;;;52.23;20.30;;;;;;;;;;4740517;30;20779;-75
2022/01/19 00:02:37;;;;;;;44.63;18.83;;;;;;;;;;4737354;30;20059;-75
2022/01/19 00:05:04;;;;;;;40.17;18.60;;;;;;;;;;4746055;30;20111;-77
2022/01/19 00:07:29;;;;;;;30.85;16.55;;;;;;;;;;4743622;30;20107;-77
2022/01/19 00:09:54;;;;;;;36.93;17.87;;;;;;;;;;4737926;30;20040;-77
2022/01/19 00:12:20;;;;;;;57.73;22.00;;;;;;;;;;4742760;30;20451;-77
2022/01/19 00:14:45;;;;;;;51.10;18.30;;;;;;;;;;4740508;30;20048;-77
2022/01/19 00:17:11;;;;;;;52.43;21.13;;;;;;;;;;4750042;30;20032;-74
2022/01/19 00:19:36;;;;;;;37.60;17.30;;;;;;;;;;4745583;30;20036;-74
2022/01/19 00:22:01;;;;;;;40.77;18.67;;;;;;;;;;4744125;30;20474;-74
2022/01/19 00:24:27;;;;;;;36.37;16.30;;;;;;;;;;4748386;30;20058;-74
2022/01/19 00:26:52;;;;;;;41.30;18.83;;;;;;;;;;4748128;30;20528;-74
2022/01/19 00:29:17;;;;;;;35.17;17.07;;;;;;;;;;4742406;30;20055;-74
2022/01/19 00:31:43;;;;;;;37.97;16.77;;;;;;;;;;4737679;30;20028;-76
2022/01/19 00:34:08;;;;;;;35.00;15.80;;;;;;;;;;4746204;30;20518;-76
2022/01/19 00:36:34;;;;;;;35.37;15.70;;;;;;;;;;4737650;30;20071;-76
2022/01/19 00:38:59;;;;;;;49.40;18.87;;;;;;;;;;4744823;30;20041;-76
2022/01/19 00:41:24;;;;;;;38.17;17.97;;;;;;;;;;4737902;30;20045;-76
2022/01/19 00:43:50;;;;;;;35.00;17.53;;;;;;;;;;4745509;30;20056;-76
2022/01/19 00:46:15;;;;;;;30.03;17.00;;;;;;;;;;4745906;30;20123;-76
2022/01/19 00:48:41;;;;;;;34.37;17.07;;;;;;;;;;4743156;30;20039;-76
2022/01/19 00:51:07;;;;;;;34.70;16.75;;;;;;;;;;4747269;30;20113;-73
2022/01/19 00:53:33;;;;;;;111.37;24.13;;;;;;;;;;4744810;30;20391;-74
2022/01/19 00:55:58;;;;;;;39.17;16.97;;;;;;;;;;4743518;30;20059;-74
2022/01/19 00:58:24;;;;;;;49.67;17.83;;;;;;;;;;4750815;30;20062;-74
2022/01/19 01:00:49;;;;;;;43.00;20.20;;;;;;;;;;4748516;30;20036;-74
2022/01/19 01:03:15;;;;;;;38.73;16.70;;;;;;;;;;4754220;30;20060;-73
2022/01/19 01:05:41;;;;;;;47.33;20.30;;;;;;;;;;4753166;30;20097;-74
2022/01/19 01:08:07;;;;;;;33.80;17.00;;;;;;;;;;4727829;30;20075;-74
2022/01/19 01:10:41;;;;;;;36.93;16.00;;;;;;;;;;4746809;30;20064;-74
2022/01/19 01:13:21;;;;;;;39.97;18.02;;;;;;;;;;4752413;30;20151;-73
2022/01/19 01:18:25;;;;;;;39.45;17.40;;;;;;;;;;4744094;30;20048;-74
2022/01/19 01:20:53;;;;;;;55.03;23.23;;;;;;;;;;4733537;30;20044;-73
2022/01/19 01:23:21;;;;;;;51.03;23.52;;;;;;;;;;4735950;30;20503;-73
2022/01/19 01:25:46;;;;;;;38.05;17.88;;;;;;;;;;4750805;30;20148;-74
2022/01/19 01:28:13;;;;;;;41.57;18.37;;;;;;;;;;4741894;30;20475;-74
2022/01/19 01:30:39;;;;;;;;;;;;;;;;;;4741680;30;20079;-77
2022/01/19 01:33:05;;;;;;;42.33;18.52;;;;;;;;;;4743089;30;19965;-77
2022/01/19 01:35:31;;;;;;;41.37;18.23;;;;;;;;;;4750507;30;20067;-77
2022/01/19 01:37:56;;;;;;;40.63;19.23;;;;;;;;;;4743566;30;20048;-77
2022/01/19 01:40:25;;;;;;;48.17;18.97;;;;;;;;;;4740722;30;20071;-77
2022/01/19 01:42:54;;;;;;;53.72;20.73;;;;;;;;;;4737258;30;20040;-77
2022/01/19 01:45:25;;;;;;;73.28;26.50;;;;;;;;;;4743515;30;20060;-77
2022/01/19 01:47:58;;;;;;;80.03;29.60;;;;;;;;;;4741139;30;20043;-77
2022/01/19 01:53:26;;;;;;;109.07;31.55;;;;;;;;;;4741842;30;20059;-74
2022/01/19 01:56:06;;;;;;;125.47;39.70;;;;;;;;;;4745778;30;20036;-74
2022/01/19 01:58:37;;;;;;;117.28;37.42;;;;;;;;;;4742845;30;20049;-74
2022/01/19 02:01:03;;;;;;;130.57;33.53;;;;;;;;;;4739952;30;20056;-77
2022/01/19 02:03:36;;;;;;;80.90;27.40;;;;;;;;;;4734815;30;20088;-77
2022/01/19 02:08:56;;;;;;;157.32;43.53;;;;;;;;;;4738078;30;20101;-77
2022/01/19 02:23:05;;;;;;;222.18;36.20;;;;;;;;;;4751703;30;20492;-74
2022/01/19 02:25:36;;;;;;;122.22;30.40;;;;;;;;;;4740146;30;20164;-74
2022/01/19 02:31:23;;;;;;;87.82;27.02;;;;;;;;;;4734836;30;20056;-74
2022/01/19 02:36:38;;;;;;;135.80;32.17;;;;;;;;;;4741474;30;20140;-74
2022/01/19 02:41:50;;;;;;;118.85;31.02;;;;;;;;;;4743244;30;20138;-74
2022/01/19 02:44:31;;;;;;;149.15;36.63;;;;;;;;;;4734678;30;20052;-74
2022/01/19 02:49:40;;;;;;;268.77;48.13;;;;;;;;;;4743916;30;20469;-74
2022/01/19 02:52:06;;;;;;;269.87;41.73;;;;;;;;;;4745068;30;20119;-74
2022/01/19 02:54:32;;;;;;;187.30;42.53;;;;;;;;;;4738344;30;20412;-74
2022/01/19 02:57:01;;;;;;;276.65;45.15;;;;;;;;;;4749508;30;20028;-74
2022/01/19 03:10:07;;;;;;;226.52;38.75;;;;;;;;;;4732165;30;20076;-74
2022/01/19 03:12:32;;;;;;;86.03;28.67;;;;;;;;;;4735025;30;20049;-74
2022/01/19 03:14:57;;;;;;;85.43;26.93;;;;;;;;;;4745193;30;20479;-74
2022/01/19 03:17:23;;;;;;;57.10;23.13;;;;;;;;;;4741987;30;20040;-74
2022/01/19 03:19:49;;;;;;;58.87;24.17;;;;;;;;;;4747405;30;20453;-74
2022/01/19 03:22:16;;;;;;;62.60;25.00;;;;;;;;;;4735790;30;20059;-74
2022/01/19 03:24:49;;;;;;;59.25;22.83;;;;;;;;;;4749485;30;20111;-74
2022/01/19 03:27:15;;;;;;;49.97;20.92;;;;;;;;;;4748235;30;20051;-74
2022/01/19 03:29:40;;;;;;;47.83;20.97;;;;;;;;;;4742518;30;20040;-74
2022/01/19 03:32:06;;;;;;;62.37;22.10;;;;;;;;;;4748183;30;20036;-74
2022/01/19 03:34:32;;;;;;;60.53;22.63;;;;;;;;;;4742361;30;20059;-74
2022/01/19 03:36:57;;;;;;;61.23;22.30;;;;;;;;;;4742035;30;20043;-74
2022/01/19 03:39:23;;;;;;;63.20;21.93;;;;;;;;;;4737399;30;20056;-74
2022/01/19 03:41:49;;;;;;;68.78;23.90;;;;;;;;;;4734007;30;20080;-74
2022/01/19 03:44:14;;;;;;;54.80;22.13;;;;;;;;;;4733866;30;20063;-74
2022/01/19 03:46:54;;;;;;;54.63;21.97;;;;;;;;;;4734045;30;20360;-74
2022/01/19 03:49:24;;;;;;;57.25;21.33;;;;;;;;;;4739111;30;20498;-74
2022/01/19 03:51:52;;;;;;;45.35;19.95;;;;;;;;;;4741965;30;20056;-74
2022/01/19 03:54:18;;;;;;;51.25;22.50;;;;;;;;;;4748780;30;20482;-74
2022/01/19 03:56:44;;;;;;;43.50;18.58;;;;;;;;;;4740774;30;20535;-74
2022/01/19 03:59:09;;;;;;;45.30;20.87;;;;;;;;;;4745418;30;20044;-74
2022/01/19 04:01:35;;;;;;;45.67;20.80;;;;;;;;;;4751752;30;20071;-74
2022/01/19 04:07:07;;;;;;;92.97;28.08;;;;;;;;;;4751305;30;20051;-74
2022/01/19 04:09:43;;;;;;;44.70;20.25;;;;;;;;;;4738282;30;20052;-74
2022/01/19 04:12:13;;;;;;;52.38;21.50;;;;;;;;;;4738090;30;20497;-74
2022/01/19 04:14:38;;;;;;;45.35;20.13;;;;;;;;;;4735271;30;20048;-74
2022/01/19 04:17:09;;;;;;;39.37;19.27;;;;;;;;;;4736735;30;20471;-74
2022/01/19 04:22:08;;;;;;;56.42;21.83;;;;;;;;;;4730414;30;20048;-74
2022/01/19 04:24:35;;;;;;;41.40;19.42;;;;;;;;;;4734210;30;20064;-74
2022/01/19 04:29:51;;;;;;;52.05;22.35;;;;;;;;;;4740481;30;20044;-74
2022/01/19 04:32:21;;;;;;;66.90;25.17;;;;;;;;;;4729713;30;20040;-74
2022/01/19 04:34:48;;;;;;;61.88;25.15;;;;;;;;;;4744647;30;20040;-74
2022/01/19 05:04:11;;;;;;;83.70;25.40;;;;;;;;;;4735404;30;20044;-74
2022/01/19 05:06:41;;;;;;;113.03;30.40;;;;;;;;;;4741074;30;20055;-74
2022/01/19 05:09:11;;;;;;;59.30;21.70;;;;;;;;;;4740464;30;20126;-74
2022/01/19 05:14:21;;;;;;;118.38;31.73;;;;;;;;;;4734967;30;20071;-74
2022/01/19 05:16:46;;;;;;;184.27;35.77;;;;;;;;;;4749381;30;20498;-74
2022/01/19 05:19:12;;;;;;;91.13;28.73;;;;;;;;;;4749505;30;20083;-74
2022/01/19 05:21:37;;;;;;;74.93;25.67;;;;;;;;;;4747023;30;20046;-74
2022/01/19 05:24:06;;;;;;;77.23;23.83;;;;;;;;;;4748740;30;20052;-74
2022/01/19 05:26:34;;;;;;;109.60;31.27;;;;;;;;;;4750794;30;20158;-74
2022/01/19 05:28:59;;;;;;;129.50;33.70;;;;;;;;;;4749314;30;20395;-74
2022/01/19 05:31:26;;;;;;;123.60;31.47;;;;;;;;;;4751295;30;20055;-77
2022/01/19 05:33:51;;;;;;;135.52;34.33;;;;;;;;;;4748076;30;20035;-76
2022/01/19 05:36:17;;;;;;;151.10;35.10;;;;;;;;;;4744293;30;20037;-76
2022/01/19 05:38:42;;;;;;;179.67;40.17;;;;;;;;;;4742387;30;20044;-76
2022/01/19 05:41:07;;;;;;;155.87;36.37;;;;;;;;;;4734110;30;20068;-76
2022/01/19 05:43:33;;;;;;;110.93;29.50;;;;;;;;;;4742079;30;20074;-74
2022/01/19 05:45:58;;;;;;;80.50;24.37;;;;;;;;;;4736780;30;20048;-74
2022/01/19 05:48:24;;;;;;;72.00;23.03;;;;;;;;;;4743006;30;20036;-74
2022/01/19 05:50:50;;;;;;;84.17;23.60;;;;;;;;;;4741920;30;20041;-74
2022/01/19 05:53:16;;;;;;;85.45;21.90;;;;;;;;;;4747146;30;20048;-74
2022/01/19 05:55:42;;;;;;;74.03;22.23;;;;;;;;;;4725262;30;20399;-74
2022/01/19 05:58:08;;;;;;;65.75;20.23;;;;;;;;;;4734506;30;20044;-74
2022/01/19 06:00:33;;;;;;;70.77;19.43;;;;;;;;;;4739919;30;20045;-76
2022/01/19 06:02:59;;;;;;;60.53;18.90;;;;;;;;;;4697850;30;1140210;-76
2022/01/19 06:05:24;;;;;;;81.37;21.77;;;;;;;;;;4735446;30;20048;-77
2022/01/19 06:07:59;;;;;;;77.20;21.13;;;;;;;;;;4728014;30;20051;-76
2022/01/19 06:10:43;;;;;;;76.07;21.38;;;;;;;;;;4744286;30;20060;-77
2022/01/19 06:13:09;;;;;;;95.57;23.05;;;;;;;;;;4738030;30;20066;-74
2022/01/19 06:15:34;;;;;;;90.70;24.93;;;;;;;;;;4751424;30;20541;-74
2022/01/19 06:17:59;;;;;;;91.60;22.90;;;;;;;;;;4751416;30;20293;-73
2022/01/19 06:20:26;;;;;;;84.87;20.17;;;;;;;;;;4742498;30;20028;-74
2022/01/19 06:22:52;;;;;;;318.98;44.15;;;;;;;;;;4738172;30;20437;-74
2022/01/19 06:25:17;;;;;;;455.75;58.55;;;;;;;;;;4741286;30;20494;-74
2022/01/19 06:27:43;;;;;;;111.07;25.10;;;;;;;;;;4740263;30;20037;-73
2022/01/19 06:30:09;;;;;;;81.67;24.60;;;;;;;;;;4742864;30;20036;-73
2022/01/19 06:32:34;;;;;;;119.30;28.00;;;;;;;;;;4735055;30;20048;-73
2022/01/19 06:35:00;;;;;;;104.07;29.10;;;;;;;;;;4752453;30;20048;-74
2022/01/19 06:37:25;;;;;;;87.33;24.73;;;;;;;;;;4742059;30;20044;-73
2022/01/19 06:39:52;;;;;;;137.50;33.80;;;;;;;;;;4724641;30;20041;-74
2022/01/19 06:42:17;;;;;;;239.75;42.22;;;;;;;;;;4738151;30;20036;-74
2022/01/19 06:44:42;;;;;;;319.50;45.77;;;;;;;;;;4742383;30;20087;-74
2022/01/19 06:47:08;;;;;;;111.57;26.20;;;;;;;;;;4735520;30;20133;-74
2022/01/19 06:49:33;;;;;;;135.07;30.10;;;;;;;;;;4752741;30;20044;-73
2022/01/19 06:51:59;;;;;;;69.20;22.47;;;;;;;;;;4751979;30;20146;-74
2022/01/19 06:54:25;;;;;;;90.15;23.98;;;;;;;;;;4742375;30;20063;-73
2022/01/19 06:56:50;;;;;;;224.90;36.03;;;;;;;;;;4740691;30;20048;-73
2022/01/19 06:59:16;;;;;;;166.27;31.47;;;;;;;;;;4743896;30;20111;-73
2022/01/19 07:01:41;;;;;;;185.33;33.53;;;;;;;;;;4740042;30;20052;-73
2022/01/19 07:04:06;;;;;;;182.03;34.23;;;;;;;;;;4752851;30;20032;-74
2022/01/19 07:06:32;;;;;;;116.77;26.90;;;;;;;;;;4741196;30;20040;-73
2022/01/19 07:08:58;;;;;;;79.50;23.60;;;;;;;;;;4738925;30;20053;-73
2022/01/19 07:11:23;;;;;;;75.13;22.80;;;;;;;;;;4741826;30;20089;-73
2022/01/19 07:13:49;;;;;;;77.87;23.30;;;;;;;;;;4742005;30;20050;-73
2022/01/19 07:16:16;;;;;;;85.40;23.33;;;;;;;;;;4747141;30;20482;-73
2022/01/19 07:18:42;;;;;;;76.47;21.15;;;;;;;;;;4742962;30;20091;-73
2022/01/19 07:21:07;;;;;;;84.83;23.33;;;;;;;;;;4734302;30;20502;-73
2022/01/19 07:23:32;;;;;;;61.83;20.60;;;;;;;;;;4739147;30;20056;-73
2022/01/19 07:25:58;;;;;;;67.10;22.27;;;;;;;;;;4738543;30;20036;-74
2022/01/19 07:28:23;;;;;;;73.27;25.17;;;;;;;;;;4734285;30;20083;-74
2022/01/19 07:30:49;;;;;;;85.57;24.23;;;;;;;;;;4752066;30;20052;-74
2022/01/19 07:33:14;;;;;;;64.67;21.63;;;;;;;;;;4741051;30;20394;-74
2022/01/19 07:35:39;;;;;;;85.83;24.37;;;;;;;;;;4751745;30;20028;-74
2022/01/19 07:38:05;;;;;;;73.60;23.43;;;;;;;;;;4749951;30;20113;-74
2022/01/19 07:40:30;;;;;;;75.17;23.43;;;;;;;;;;4735326;30;20040;-74
2022/01/19 07:42:56;;;;;;;79.93;23.60;;;;;;;;;;4747449;30;20063;-74
2022/01/19 07:45:21;;;;;;;80.43;30.30;;;;;;;;;;4746732;30;20056;-74
2022/01/19 07:47:46;;;;;;;69.27;24.20;;;;;;;;;;4743802;30;20040;-74
2022/01/19 07:50:12;;;;;;;83.40;27.83;;;;;;;;;;4748272;30;20085;-74
2022/01/19 07:52:38;;;;;;;65.87;23.43;;;;;;;;;;4750535;30;20098;-74
2022/01/19 07:55:03;;;;;;;80.97;24.53;;;;;;;;;;4748118;30;20042;-74
2022/01/19 07:57:29;;;;;;;71.93;21.30;;;;;;;;;;4740826;30;20376;-74
2022/01/19 07:59:54;;;;;;;61.00;20.73;;;;;;;;;;4747379;30;20363;-74
2022/01/19 08:02:19;;;;;;;60.27;20.60;;;;;;;;;;4743216;30;20056;-76
2022/01/19 08:04:45;;;;;;;58.23;21.07;;;;;;;;;;4736347;30;20036;-76
2022/01/19 08:07:11;;;;;;;59.23;23.80;;;;;;;;;;4745860;30;20051;-76
2022/01/19 08:09:37;;;;;;;63.15;22.13;;;;;;;;;;4739027;30;20344;-76
2022/01/19 08:12:03;;;;;;;57.03;19.47;;;;;;;;;;4738245;30;20131;-76
2022/01/19 08:14:29;;;;;;;61.05;21.73;;;;;;;;;;4733367;30;20110;-76
2022/01/19 08:16:55;;;;;;;54.77;19.47;;;;;;;;;;4741810;30;20044;-76
2022/01/19 08:19:20;;;;;;;57.63;22.40;;;;;;;;;;4743389;30;20025;-76
2022/01/19 08:21:46;;;;;;;56.30;21.90;;;;;;;;;;4743638;30;20074;-76
2022/01/19 08:24:12;;;;;;;58.87;21.23;;;;;;;;;;4742427;30;20038;-76
2022/01/19 08:26:37;;;;;;;58.87;20.73;;;;;;;;;;4737487;30;20464;-77
2022/01/19 08:29:05;;;;;;;52.40;19.03;;;;;;;;;;4736527;30;20041;-76
2022/01/19 08:31:31;;;;;;;43.10;19.15;;;;;;;;;;4748101;30;20119;-76
2022/01/19 08:33:56;;;;;;;43.97;16.97;;;;;;;;;;4739748;30;20128;-76
2022/01/19 08:36:21;;;;;;;49.13;19.30;;;;;;;;;;4736049;30;20076;-76
2022/01/19 08:38:47;;;;;;;41.40;18.73;;;;;;;;;;4746112;30;20509;-76
2022/01/19 08:41:12;;;;;;;47.07;18.10;;;;;;;;;;4739718;30;20040;-76
2022/01/19 08:43:38;;;;;;;42.13;17.63;;;;;;;;;;4736970;30;20499;-76
2022/01/19 08:46:03;;;;;;;47.77;19.97;;;;;;;;;;4734828;30;20538;-76
2022/01/19 08:48:29;;;;;;;42.70;17.63;;;;;;;;;;4739543;30;20040;-76
2022/01/19 08:50:54;;;;;;;41.10;18.87;;;;;;;;;;4743106;30;20036;-76
2022/01/19 08:53:21;;;;;;;38.73;18.63;;;;;;;;;;4732940;30;20431;-76
2022/01/19 08:55:47;;;;;;;40.92;16.08;;;;;;;;;;4729477;30;20485;-76
2022/01/19 08:58:13;;;;;;;34.83;16.48;;;;;;;;;;4738507;30;20048;-76
2022/01/19 09:00:41;;;;;;;40.13;14.88;;;;;;;;;;4744993;30;20040;-76
2022/01/19 09:03:06;;;;;;;43.83;17.70;;;;;;;;;;4749550;30;20146;-76
2022/01/19 09:05:32;;;;;;;34.70;15.60;;;;;;;;;;4738851;30;20156;-76
2022/01/19 09:07:57;;;;;;;59.73;19.17;;;;;;;;;;4743157;30;20044;-76
2022/01/19 09:10:24;;;;;;;39.47;17.97;;;;;;;;;;4741078;30;20033;-76
2022/01/19 09:12:50;;;;;;;;;;;;;;;;;;4738641;30;20710;-76
2022/01/19 09:15:17;;;;;;;34.67;16.42;;;;;;;;;;4740592;30;19922;-76
2022/01/19 09:17:43;;;;;;;40.38;15.73;;;;;;;;;;4731863;30;20118;-76
2022/01/19 09:20:13;;;;;;;33.93;14.77;;;;;;;;;;4735472;30;20499;-76
2022/01/19 09:22:39;;;;;;;37.58;15.95;;;;;;;;;;4735640;30;20032;-76
2022/01/19 09:25:06;;;;;;;34.85;15.07;;;;;;;;;;4744102;30;20044;-76
2022/01/19 09:27:32;;;;;;;31.67;14.90;;;;;;;;;;4743148;30;20094;-76
2022/01/19 09:29:57;;;;;;;42.73;16.90;;;;;;;;;;4739685;30;20036;-76
2022/01/19 09:32:23;;;;;;;34.70;16.10;;;;;;;;;;4744412;30;20384;-76
2022/01/19 09:34:55;;;;;;;30.77;14.38;;;;;;;;;;4738194;30;20072;-76
2022/01/19 09:37:20;;;;;;;27.52;12.80;;;;;;;;;;4743232;30;20113;-76
2022/01/19 09:39:46;;;;;;;23.27;12.13;;;;;;;;;;4742774;30;20410;-76
2022/01/19 09:42:12;;;;;;;26.43;13.27;;;;;;;;;;4740425;30;20437;-76
2022/01/19 09:44:37;;;;;;;23.60;12.07;;;;;;;;;;4739241;30;20032;-76
2022/01/19 09:47:03;;;;;;;29.93;13.10;;;;;;;;;;4737600;30;20464;-76
2022/01/19 09:49:29;;;;;;;25.77;12.75;;;;;;;;;;4737239;30;20080;-76
2022/01/19 09:51:54;;;;;;;26.17;13.80;;;;;;;;;;4736354;30;20083;-76
2022/01/19 09:54:22;;;;;;;27.97;12.93;;;;;;;;;;4741256;30;20482;-76
2022/01/19 09:56:48;;;;;;;23.13;12.52;;;;;;;;;;4747638;30;20044;-76
2022/01/19 09:59:15;;;;;;;20.47;9.97;;;;;;;;;;4734301;30;20502;-76
2022/01/19 10:01:50;;;;;;;15.88;9.32;;;;;;;;;;4741546;30;20061;-76
2022/01/19 10:04:21;;;;;;;19.17;9.95;;;;;;;;;;4745297;30;20524;-76
2022/01/19 10:06:46;;;;;;;14.43;9.20;;;;;;;;;;4742410;30;20032;-76
2022/01/19 10:09:13;;;;;;;21.10;9.43;;;;;;;;;;4740833;30;20106;-76
2022/01/19 10:17:02;;;;;;;13.63;9.23;;;;;;;;;;4721982;30;20071;-76
2022/01/19 10:19:30;;;;;;;14.05;8.43;;;;;;;;;;4745266;30;20044;-76
2022/01/19 10:22:18;;;;;;;14.30;8.30;;;;;;;;;;4742104;30;20052;-76
2022/01/19 10:25:02;;;;;;;18.02;9.50;;;;;;;;;;4733205;30;20135;-76
2022/01/19 10:27:45;;;;;;;13.35;9.27;;;;;;;;;;4741669;30;20053;-76
2022/01/19 10:30:25;;;;;;;19.65;8.95;;;;;;;;;;4730176;30;20070;-76
2022/01/19 10:32:55;;;;;;;20.40;9.20;;;;;;;;;;4731109;30;20450;-76
2022/01/19 10:35:28;;;;;;;15.52;9.18;;;;;;;;;;4739649;30;20045;-76
2022/01/19 10:38:14;;;;;;;23.33;11.50;;;;;;;;;;4744148;30;20055;-76
2022/01/19 10:40:41;;;;;;;21.08;10.85;;;;;;;;;;4748369;30;20468;-77
2022/01/19 10:43:37;;;;;;;22.65;10.90;;;;;;;;;;4748683;30;20409;-76
2022/01/19 10:46:30;;;;;;;19.40;11.10;;;;;;;;;;4723183;30;20063;-76
2022/01/19 10:49:07;;;;;;;22.73;12.93;;;;;;;;;;4731625;30;20045;-76
2022/01/19 10:51:47;;;;;;;31.20;13.57;;;;;;;;;;4737505;30;20048;-76
2022/01/19 10:54:16;;;;;;;21.05;11.13;;;;;;;;;;4735401;30;20040;-76
2022/01/19 10:56:43;;;;;;;24.92;13.73;;;;;;;;;;4744473;30;20051;-76
2022/01/19 10:59:12;;;;;;;21.88;12.18;;;;;;;;;;4737258;30;20051;-76
2022/01/19 11:01:48;;;;;;;28.10;12.85;;;;;;;;;;4731809;30;20515;-76
2022/01/19 11:04:37;;;;;;;16.63;9.43;;;;;;;;;;4734197;30;20411;-76
2022/01/19 11:07:08;;;;;;;21.40;11.98;;;;;;;;;;4741938;30;20045;-76
2022/01/19 11:09:46;;;;;;;19.05;9.77;;;;;;;;;;4734197;30;20070;-76
2022/01/19 11:12:17;;;;;;;13.93;8.02;;;;;;;;;;4731973;30;20066;-76
2022/01/19 11:14:43;;;;;;;14.00;7.50;;;;;;;;;;4734941;30;20045;-77
2022/01/19 11:17:09;;;;;;;12.93;6.38;;;;;;;;;;4734812;30;20120;-76
2022/01/19 11:19:43;;;;;;;13.83;6.40;;;;;;;;;;4739529;30;20130;-76
2022/01/19 11:22:12;;;;;;;10.27;5.70;;;;;;;;;;4737081;30;20062;-77
2022/01/19 11:25:11;;;;;;;9.80;5.75;;;;;;;;;;4741617;30;20062;-76
2022/01/19 11:27:56;;;;;;;10.15;6.32;;;;;;;;;;4735814;30;20122;-76
2022/01/19 11:30:28;;;;;;;7.80;3.67;;;;;;;;;;4731692;30;20037;-76
2022/01/19 11:33:12;;;;;;;11.52;3.80;;;;;;;;;;4731281;30;20133;-77
2022/01/19 11:35:39;;;;;;;7.43;2.70;;;;;;;;;;4731108;30;20039;-77
2022/01/19 11:38:43;;;;;;;4.57;2.67;;;;;;;;;;4741708;30;20067;-76
2022/01/19 11:41:08;;;;;;;7.13;3.65;;;;;;;;;;4746560;30;20040;-77
2022/01/19 11:43:35;;;;;;;4.40;3.00;;;;;;;;;;4733194;30;20075;-76
2022/01/19 11:46:03;;;;;;;5.68;1.88;;;;;;;;;;4732283;30;20113;-77
2022/01/19 11:48:35;;;;;;;3.35;2.33;;;;;;;;;;4740636;30;20403;-77
2022/01/19 11:51:26;;;;;;;3.42;1.70;;;;;;;;;;4729219;30;20412;-77
2022/01/19 11:54:18;;;;;;;4.28;1.60;;;;;;;;;;4734642;30;20044;-77
2022/01/19 11:57:11;;;;;;;3.50;1.65;;;;;;;;;;4737890;30;20070;-77
2022/01/19 11:59:50;;;;;;;2.75;1.52;;;;;;;;;;4717870;30;20051;-76
2022/01/19 12:02:24;;;;;;;4.68;1.23;;;;;;;;;;4745310;30;20068;-77
2022/01/19 12:05:07;;;;;;;5.25;1.33;;;;;;;;;;4745927;30;20040;-77
2022/01/19 12:07:38;;;;;;;2.35;1.05;;;;;;;;;;4737801;30;20150;-77
2022/01/19 12:10:11;;;;;;;2.60;1.20;;;;;;;;;;4739299;30;20044;-77
2022/01/19 12:12:57;;;;;;;3.10;0.73;;;;;;;;;;4740817;30;20048;-77
2022/01/19 12:15:49;;;;;;;2.13;1.80;;;;;;;;;;4737440;30;20036;-77
2022/01/19 12:18:40;;;;;;;2.80;0.82;;;;;;;;;;4732408;30;20788;-77
2022/01/19 12:21:08;;;;;;;2.92;0.98;;;;;;;;;;4739977;30;20072;-77
2022/01/19 12:23:35;;;;;;;4.03;0.70;;;;;;;;;;4742286;30;20109;-77
2022/01/19 12:26:02;;;;;;;2.53;0.63;;;;;;;;;;4731011;30;20041;-77
2022/01/19 12:28:36;;;;;;;;;;;;;;;;;;4725818;30;20055;-77
2022/01/19 12:31:29;;;;;;;1.05;0.52;;;;;;;;;;4735117;30;19924;-77
2022/01/19 12:34:04;;;;;;;2.50;0.52;;;;;;;;;;4741095;30;20041;-77
2022/01/19 12:36:52;;;;;;;2.22;0.43;;;;;;;;;;4730691;30;20041;-77
2022/01/19 12:39:27;;;;;;;2.50;0.50;;;;;;;;;;4732019;30;20040;-77
2022/01/19 12:42:14;;;;;;;0.88;0.47;;;;;;;;;;4732539;30;20119;-77
2022/01/19 12:44:50;;;;;;;0.77;0.50;;;;;;;;;;4733806;30;20119;-77
2022/01/19 12:47:24;;;;;;;3.42;0.55;;;;;;;;;;4728911;30;20052;-77
2022/01/19 12:49:54;;;;;;;5.40;0.68;;;;;;;;;;4732920;30;20064;-77
2022/01/19 12:52:22;;;;;;;1.90;0.50;;;;;;;;;;4738085;30;20251;-77
2022/01/19 12:54:48;;;;;;;3.00;0.63;;;;;;;;;;4745045;30;20041;-77
2022/01/19 12:57:17;;;;;;;3.72;0.80;;;;;;;;;;4746812;30;20048;-77
2022/01/19 12:59:45;;;;;;;2.50;0.57;;;;;;;;;;4731599;30;20049;-77
2022/01/19 13:02:13;;;;;;;3.53;0.80;;;;;;;;;;4734826;30;20220;-77
2022/01/19 13:04:40;;;;;;;3.17;0.77;;;;;;;;;;4732938;30;20060;-77
2022/01/19 13:07:17;;;;;;;7.57;0.93;;;;;;;;;;4734935;30;20445;-77
2022/01/19 13:10:07;;;;;;;4.38;1.02;;;;;;;;;;4737661;30;20043;-77
2022/01/19 13:12:56;;;;;;;1.88;0.70;;;;;;;;;;4735463;30;20033;-77
2022/01/19 13:15:23;;;;;;;9.55;1.30;;;;;;;;;;4738468;30;20111;-77
2022/01/19 13:17:51;;;;;;;2.75;0.88;;;;;;;;;;4737360;30;20520;-77
2022/01/19 13:20:21;;;;;;;6.28;1.00;;;;;;;;;;4738800;30;20051;-77
2022/01/19 13:22:52;;;;;;;2.80;0.90;;;;;;;;;;4735127;30;20032;-76
2022/01/19 13:25:25;;;;;;;1.83;0.90;;;;;;;;;;4735481;30;20049;-77
2022/01/19 13:27:54;;;;;;;4.70;1.30;;;;;;;;;;4741092;30;20044;-77
2022/01/19 13:30:19;;;;;;;2.15;0.70;;;;;;;;;;4738851;30;20135;-77
2022/01/19 13:32:45;;;;;;;9.63;1.10;;;;;;;;;;4737516;30;20497;-77
2022/01/19 13:35:11;;;;;;;3.80;1.03;;;;;;;;;;4736482;30;20037;-77
2022/01/19 13:37:46;;;;;;;2.58;0.95;;;;;;;;;;4731155;30;20041;-77
2022/01/19 13:40:13;;;;;;;6.70;0.85;;;;;;;;;;4738070;30;20438;-77
2022/01/19 13:42:41;;;;;;;2.92;0.82;;;;;;;;;;4731242;30;20041;-77
2022/01/19 13:45:19;;;;;;;6.13;1.35;;;;;;;;;;4730995;30;20051;-77
2022/01/19 13:47:54;;;;;;;;;;;;;;;;;;4733455;30;20049;-77
2022/01/19 13:50:21;;;;;;;5.07;0.98;;;;;;;;;;4726846;30;19987;-77
2022/01/19 13:52:46;;;;;;;4.15;1.38;;;;;;;;;;4739182;30;20036;-77
2022/01/19 13:55:22;;;;;;;2.80;1.20;;;;;;;;;;4738317;30;20048;-77
2022/01/19 13:57:48;;;;;;;6.30;1.10;;;;;;;;;;4731786;30;20055;-77
2022/01/19 14:00:19;;;;;;;4.00;1.20;;;;;;;;;;4733592;30;20044;-77
2022/01/19 14:03:01;;;;;;;3.40;0.75;;;;;;;;;;4734143;30;20490;-76
2022/01/19 14:05:40;;;;;;;3.83;1.10;;;;;;;;;;4733849;30;20048;-76
2022/01/19 14:08:06;;;;;;;4.85;0.70;;;;;;;;;;4732180;30;20492;-77
2022/01/19 14:10:46;;;;;;;4.88;1.80;;;;;;;;;;4734539;30;20133;-76
2022/01/19 14:13:30;;;;;;;2.63;0.88;;;;;;;;;;4731387;30;20063;-76
2022/01/19 14:16:20;;;;;;;5.40;1.40;;;;;;;;;;4736661;30;20044;-76
2022/01/19 14:19:07;;;;;;;2.47;1.05;;;;;;;;;;4729530;30;20100;-76
2022/01/19 14:21:32;;;;;;;2.65;0.80;;;;;;;;;;4733650;30;20036;-77
2022/01/19 14:23:59;;;;;;;4.40;0.80;;;;;;;;;;4727635;30;20052;-77
2022/01/19 14:26:25;;;;;;;5.53;0.80;;;;;;;;;;4737640;30;20055;-77
2022/01/19 14:29:11;;;;;;;1.77;0.80;;;;;;;;;;4735559;30;20044;-76
2022/01/19 14:31:54;;;;;;;5.45;0.98;;;;;;;;;;4728357;30;20072;-76
2022/01/19 14:34:41;;;;;;;3.58;0.85;;;;;;;;;;4734919;30;20102;-77
2022/01/19 14:37:09;;;;;;;2.40;0.90;;;;;;;;;;4733053;30;20047;-76
2022/01/19 14:39:52;;;;;;;6.15;1.55;;;;;;;;;;4735844;30;20056;-76
2022/01/19 14:42:20;;;;;;;4.95;1.25;;;;;;;;;;4737817;30;20060;-76
2022/01/19 14:44:58;;;;;;;3.88;1.00;;;;;;;;;;4736907;30;20059;-76
2022/01/19 14:47:36;;;;;;;4.63;0.70;;;;;;;;;;4732380;30;20600;-76
2022/01/19 14:50:25;;;;;;;5.75;1.30;;;;;;;;;;4734568;30;20045;-76
2022/01/19 14:52:56;;;;;;;3.85;1.08;;;;;;;;;;4730944;30;20072;-76
2022/01/19 14:55:32;;;;;;;5.15;1.20;;;;;;;;;;4731470;30;20048;-76
2022/01/19 14:57:59;;;;;;;7.50;1.05;;;;;;;;;;4732814;30;20054;-76
2022/01/19 15:00:26;;;;;;;3.08;1.55;;;;;;;;;;4719124;30;20372;-76
2022/01/19 15:02:58;;;;;;;;;;;;;;;;;;4730337;30;20068;-76
2022/01/19 15:05:24;;;;;;;4.70;1.70;;;;;;;;;;4726716;30;19923;-76
2022/01/19 15:07:50;;;;;;;4.80;2.35;;;;;;;;;;4743699;30;20402;-76
2022/01/19 15:10:15;;;;;;;4.37;1.00;;;;;;;;;;4743280;30;20478;-76
2022/01/19 15:12:42;;;;;;;4.43;2.77;;;;;;;;;;4736679;30;20040;-76
2022/01/19 15:15:09;;;;;;;;;;;;;;;;;;4738055;30;20055;-77
2022/01/19 15:17:36;;;;;;;4.60;1.20;;;;;;;;;;4732620;30;19982;-77
2022/01/19 15:20:01;;;;;;;;;;;;;;;;;;4733954;30;20068;-76
2022/01/19 15:22:27;;;;;;;5.85;1.30;;;;;;;;;;4732546;30;20011;-76
2022/01/19 15:24:54;;;;;;;9.93;2.00;;;;;;;;;;4734975;30;20442;-77
2022/01/19 15:27:19;;;;;;;3.72;1.65;;;;;;;;;;4739682;30;20031;-76
2022/01/19 15:29:45;;;;;;;8.63;1.90;;;;;;;;;;4732142;30;20036;-76
2022/01/19 15:32:10;;;;;;;4.47;1.30;;;;;;;;;;4736032;30;20051;-76
2022/01/19 15:34:36;;;;;;;6.47;1.63;;;;;;;;;;4737156;30;20463;-76
2022/01/19 15:37:02;;;;;;;6.43;1.77;;;;;;;;;;4739372;30;20442;-76
2022/01/19 15:39:27;;;;;;;11.97;2.70;;;;;;;;;;4744848;30;20056;-76
2022/01/19 15:41:53;;;;;;;8.87;1.73;;;;;;;;;;4745324;30;20036;-76
2022/01/19 15:44:18;;;;;;;5.70;1.10;;;;;;;;;;4739007;30;20513;-76
2022/01/19 15:46:43;;;;;;;5.90;2.03;;;;;;;;;;4737462;30;20059;-76
2022/01/19 15:49:09;;;;;;;5.73;1.80;;;;;;;;;;4736248;30;20068;-76
2022/01/19 15:51:34;;;;;;;9.57;1.60;;;;;;;;;;4735221;30;20052;-75
2022/01/19 15:54:00;;;;;;;4.30;1.73;;;;;;;;;;4729771;30;20114;-76
2022/01/19 15:56:25;;;;;;;4.67;2.00;;;;;;;;;;4738977;30;20032;-76
2022/01/19 15:58:51;;;;;;;6.80;1.70;;;;;;;;;;4731351;30;20040;-75
2022/01/19 16:01:16;;;;;;;9.80;2.50;;;;;;;;;;4729592;30;20049;-75
2022/01/19 16:03:42;;;;;;;19.57;2.43;;;;;;;;;;4733934;30;20059;-76